Agana Heights, GU

3:32 PM ChST on August 20, 2014 (GMT +1000)
Maite | Change Station
CLOSE
Current Station
Personal Weather Station
Location: Maite, GU
Elevation: 140 ft
Nearby Weather Stations

Elev 140 ft 13.48 °N, 144.76 °E | Updated 8 seconds ago

Mostly Cloudy
Mostly Cloudy
80.6 °F
Feels Like 87 °F
N
7.0
Wind Variable Wind from South
Gusts 14.0 mph

Today
High -- | Low -- °F
--% Chance of Precip.
Yesterday
High -- | Low -- °F
Precip. -- in
6:08 AM 6:40 PM
Waning Crescent, 24% visible
Pressure 29.84 in
Visibility 10.0 miles
Clouds Mostly Cloudy 1200 ft
Heat Index 87 °F
Dew Point 77 °F
Humidity 88%
Rainfall 1.86 in
Snow Depth Not available.
UV 4.2 out of 12
Pollen Not available.
Air Quality Not available.
Flu Activity Not available.
SPECI PGUM 200514Z 16011KT 10SM BKN012 27/24 A2984 RMK AO2

More Conditions Fewer Conditions

Pressure 29.84 in
Visibility 10.0 miles
Clouds Mostly Cloudy 1200 ft
Heat Index 87 °F
Dew Point 77 °F
Humidity 88%
Rainfall 1.86 in
Snow Depth Not available.
UV 4.2 out of 12
Pollen Not available.
Air Quality Not available.
Flu Activity Not available.
SPECI PGUM 200514Z 16011KT 10SM BKN012 27/24 A2984 RMK AO2

More Conditions Fewer Conditions

10-Day Weather Forecast

Almanac

Astronomy

Aug. 20, 2014 Rise Set
Actual Time 6:08 AM ChST 6:40 PM ChST
Civil Twilight 5:46 AM ChST 7:01 PM ChST
Nautical Twilight 5:21 AM ChST 7:27 PM ChST
Astronomical Twilight 4:55 AM ChST 7:53 PM ChST
Moon 1:34 AM ChST 2:36 PM ChST
Length of Visible Light 13h 15m
Length of Day
12h 31m
Tomorrow will be 0m 41s shorter.
Waning Crescent, 24% of the Moon is Illuminated
Today
Waning Crescent
Aug 25
New
Sep 2
First Quarter
Sep 8
Full
Sep 15
Last Quarter

Community

WunderPhotos

Upload Photos

1,745,592 photos uploaded!

Nearby

Snow Depth

Station Depth Elevation
No new snow has been reported.

Earthquake Activity

City Distance Mag. Time & Date
No recent earthquake activity has been reported nearby.
Minimum magnitude displayed is 2.5.

Coastal Water Temperatures

Place Temperature
No Stations Reporting

Nearby Weather Stations